Terminal Aerodrome Forecast
Issued by NWS

Home | Current Version | Previous Version | Text Only | Print | Product List | Glossary On
Versions: 1 2 3 4 5 6 7 8 9 10 11 12 13 14 15 16 17 18 19 20 21 22 23 24 25 26 27 28 29 30 31 32
000
FTUS45 KLKN 031120
TAFWMC
TAF
KWMC 031120Z 0312/0412 VRB06KT P6SM VCSH SCT025 BKN050
     FM031600 33011KT P6SM VCSH SCT040 BKN100
     FM031800 33010G20KT P6SM SCT110
     FM040100 34006KT P6SM SKC=

USA.gov is the U.S. government's official web portal to all federal, state and local government web resources and services.